createdAt,value
2023-02-15T00:00:26.185Z,41.79
2023-02-15T00:01:26.184Z,51.53
2023-02-15T00:02:26.201Z,47.02
2023-02-15T00:03:26.209Z,48.58
2023-02-15T00:04:26.163Z,43.70
2023-02-15T00:05:26.160Z,39.99
2023-02-15T00:06:26.147Z,47.41
2023-02-15T00:07:26.164Z,47.75
2023-02-15T00:08:26.142Z,41.02
2023-02-15T00:09:26.122Z,49.14
2023-02-15T00:10:26.115Z,57.93
2023-02-15T00:11:26.108Z,41.12
2023-02-15T00:12:26.128Z,46.96
2023-02-15T00:13:26.092Z,47.86
2023-02-15T00:14:26.084Z,50.77
2023-02-15T00:15:26.072Z,53.90
2023-02-15T00:16:26.092Z,47.00
2023-02-15T00:17:26.086Z,40.39
2023-02-15T00:18:26.051Z,46.70
2023-02-15T00:19:26.042Z,44.55
2023-02-15T00:20:26.031Z,46.10
2023-02-15T00:21:26.028Z,58.93
2023-02-15T00:22:26.053Z,59.24
2023-02-15T00:23:26.011Z,48.01
2023-02-15T00:24:26.008Z,41.47
2023-02-15T00:25:26.000Z,51.72
2023-02-15T00:26:25.988Z,54.35
2023-02-15T00:27:26.012Z,49.98
2023-02-15T00:28:25.979Z,40.94
2023-02-15T00:29:25.967Z,41.23
2023-02-15T00:30:26.061Z,40.85
2023-02-15T00:31:26.098Z,42.85
2023-02-15T00:32:25.974Z,57.76
2023-02-15T00:33:25.938Z,49.34
2023-02-15T00:34:25.944Z,54.82
2023-02-15T00:35:25.927Z,52.57
2023-02-15T00:36:25.915Z,40.98
2023-02-15T00:37:25.939Z,50.27
2023-02-15T00:38:25.900Z,53.51
2023-02-15T00:39:25.897Z,54.29
2023-02-15T00:40:25.889Z,52.42
2023-02-15T00:41:25.888Z,45.74
2023-02-15T00:42:26.043Z,44.26
2023-02-15T00:43:25.861Z,57.71
2023-02-15T00:44:25.855Z,44.24
2023-02-15T00:45:25.848Z,43.92
2023-02-15T00:46:25.840Z,42.93
2023-02-15T00:47:25.833Z,48.60
2023-02-15T00:48:25.848Z,48.68
2023-02-15T00:49:25.825Z,42.37
2023-02-15T00:50:25.812Z,51.92
2023-02-15T00:51:25.810Z,40.09
2023-02-15T00:52:25.807Z,44.84
2023-02-15T00:53:25.835Z,44.35
2023-02-15T00:54:25.786Z,40.46
2023-02-15T00:55:25.774Z,51.31
2023-02-15T00:56:26.783Z,52.28
2023-02-15T00:57:25.770Z,55.85
2023-02-15T00:58:25.784Z,52.10
2023-02-15T00:59:25.754Z,40.72
2023-02-15T01:00:25.781Z,50.45
2023-02-15T01:01:25.767Z,49.73
2023-02-15T01:02:25.734Z,40.59
2023-02-15T01:03:25.753Z,44.96
2023-02-15T01:04:25.736Z,50.24
2023-02-15T01:05:25.712Z,50.98
2023-02-15T01:06:25.708Z,40.06
2023-02-15T01:07:25.700Z,41.16
2023-02-15T01:08:25.724Z,42.55
2023-02-15T01:09:25.687Z,40.05
2023-02-15T01:10:25.678Z,43.84
2023-02-15T01:11:25.670Z,45.16
2023-02-15T01:12:25.665Z,40.41
2023-02-15T01:13:25.682Z,55.33
2023-02-15T01:14:25.649Z,54.03
2023-02-15T01:15:25.640Z,45.39
2023-02-15T01:16:25.730Z,46.06
2023-02-15T01:17:25.711Z,46.73
2023-02-15T01:18:25.648Z,57.78
2023-02-15T01:19:25.614Z,52.64
2023-02-15T01:20:25.618Z,45.04
2023-02-15T01:21:25.617Z,52.94
2023-02-15T01:22:25.594Z,47.17
2023-02-15T01:23:25.616Z,42.42
2023-02-15T01:24:25.589Z,49.11
2023-02-15T01:25:25.577Z,45.98
2023-02-15T01:26:25.561Z,39.72
2023-02-15T01:27:25.565Z,40.09
2023-02-15T01:28:25.574Z,54.19
2023-02-15T01:29:25.550Z,59.65
2023-02-15T01:30:25.565Z,51.67
2023-02-15T01:31:25.581Z,45.70
2023-02-15T01:32:25.523Z,43.70
2023-02-15T01:33:25.538Z,50.58
2023-02-15T01:34:25.508Z,44.83
2023-02-15T01:35:25.506Z,56.51
2023-02-15T01:36:25.493Z,49.44
2023-02-15T01:37:25.487Z,52.28
2023-02-15T01:38:25.505Z,52.77
2023-02-15T01:39:25.466Z,58.38
2023-02-15T01:40:25.462Z,49.04
2023-02-15T01:41:25.467Z,50.36
2023-02-15T01:42:25.448Z,48.41
2023-02-15T01:43:25.465Z,50.48
2023-02-15T01:44:25.432Z,45.39
2023-02-15T01:45:25.428Z,51.00
2023-02-15T01:46:25.423Z,42.17
2023-02-15T01:48:25.429Z,43.73
2023-02-15T01:49:25.396Z,43.47
2023-02-15T01:50:25.387Z,51.55
2023-02-15T01:51:25.383Z,48.50
2023-02-15T01:52:25.371Z,51.55
2023-02-15T01:53:25.391Z,53.68
2023-02-15T01:54:25.361Z,47.24
2023-02-15T01:55:25.348Z,41.76
2023-02-15T01:56:25.351Z,48.76
2023-02-15T01:57:25.341Z,55.26
2023-02-15T01:58:25.350Z,43.99
2023-02-15T01:59:25.315Z,51.81
2023-02-15T02:00:25.308Z,54.92
2023-02-15T02:01:25.313Z,55.16
2023-02-15T02:02:25.337Z,53.49
2023-02-15T02:03:25.320Z,44.84
2023-02-15T02:04:25.274Z,47.48
2023-02-15T02:05:25.274Z,46.78
2023-02-15T02:06:26.277Z,41.08
2023-02-15T02:07:26.258Z,52.10
2023-02-15T02:08:25.252Z,46.95
2023-02-15T02:09:25.266Z,50.11
2023-02-15T02:10:25.251Z,44.98
2023-02-15T02:11:25.226Z,46.74
2023-02-15T02:12:25.211Z,58.47
2023-02-15T02:13:26.219Z,54.79
2023-02-15T02:14:25.236Z,51.44
2023-02-15T02:15:25.198Z,54.21
2023-02-15T02:16:25.259Z,53.56
2023-02-15T02:17:25.197Z,47.96
2023-02-15T02:18:25.180Z,50.84
2023-02-15T02:19:25.196Z,47.89
2023-02-15T02:20:25.161Z,50.63
2023-02-15T02:21:25.163Z,42.31
2023-02-15T02:22:25.144Z,46.36
2023-02-15T02:23:25.160Z,45.72
2023-02-15T02:24:25.158Z,46.92
2023-02-15T02:25:25.137Z,55.06
2023-02-15T02:26:25.121Z,47.99
2023-02-15T02:27:25.111Z,49.40
2023-02-15T02:28:25.101Z,45.66
2023-02-15T02:29:25.120Z,41.34
2023-02-15T02:30:25.188Z,56.90
2023-02-15T02:31:25.172Z,43.44
2023-02-15T02:32:25.079Z,54.61
2023-02-15T02:33:25.070Z,50.67
2023-02-15T02:34:25.093Z,52.41
2023-02-15T02:35:25.058Z,53.36
2023-02-15T02:36:25.046Z,51.19
2023-02-15T02:37:25.042Z,55.63
2023-02-15T02:38:25.033Z,52.95
2023-02-15T02:39:25.056Z,48.39
2023-02-15T02:40:25.022Z,48.16
2023-02-15T02:41:25.009Z,58.76
2023-02-15T02:42:25.011Z,46.03
2023-02-15T02:43:24.997Z,52.01
2023-02-15T02:44:24.994Z,55.03
2023-02-15T02:45:25.005Z,56.76
2023-02-15T02:46:25.019Z,51.54
2023-02-15T02:47:24.976Z,47.38
2023-02-15T02:48:24.966Z,48.79
2023-02-15T02:49:24.985Z,41.79
2023-02-15T02:50:24.953Z,46.98
2023-02-15T02:51:24.951Z,51.27
2023-02-15T02:52:24.934Z,56.34
2023-02-15T02:53:24.928Z,55.12
2023-02-15T02:54:24.926Z,44.69
2023-02-15T02:55:24.940Z,57.04
2023-02-15T02:56:24.917Z,50.06
2023-02-15T02:57:24.899Z,54.94
2023-02-15T02:58:24.898Z,57.54
2023-02-15T02:59:24.888Z,47.24
2023-02-15T03:00:24.905Z,44.33
2023-02-15T03:01:25.926Z,46.41
2023-02-15T03:02:24.905Z,50.64
2023-02-15T03:03:24.854Z,40.87
2023-02-15T03:04:24.851Z,43.29
2023-02-15T03:05:24.850Z,47.84
2023-02-15T03:06:25.830Z,48.59
2023-02-15T03:07:24.825Z,41.36
2023-02-15T03:08:24.815Z,49.73
2023-02-15T03:09:24.804Z,52.95
2023-02-15T03:10:24.820Z,52.94
2023-02-15T03:11:24.788Z,55.85
2023-02-15T03:12:24.801Z,52.88
2023-02-15T03:13:24.779Z,53.87
2023-02-15T03:14:24.768Z,46.67
2023-02-15T03:15:24.795Z,56.99
2023-02-15T03:16:24.808Z,45.49
2023-02-15T03:17:24.748Z,46.59
2023-02-15T03:18:24.736Z,50.39
2023-02-15T03:19:24.730Z,42.65
2023-02-15T03:20:24.748Z,53.09
2023-02-15T03:21:24.718Z,50.91
2023-02-15T03:22:24.708Z,46.14
2023-02-15T03:23:24.707Z,56.43
2023-02-15T03:24:26.253Z,41.47
2023-02-15T03:25:24.733Z,56.41
2023-02-15T03:26:24.690Z,51.18
2023-02-15T03:27:24.683Z,50.61
2023-02-15T03:28:24.665Z,54.47
2023-02-15T03:29:24.661Z,50.10
2023-02-15T03:30:24.721Z,55.33
2023-02-15T03:31:24.742Z,51.61
2023-02-15T03:32:24.641Z,56.21
2023-02-15T03:33:24.632Z,53.87
2023-02-15T03:34:24.639Z,41.48
2023-02-15T03:35:24.653Z,48.68
2023-02-15T03:36:24.609Z,53.18
2023-02-15T03:37:24.615Z,49.11
2023-02-15T03:38:24.583Z,58.43
2023-02-15T03:39:25.585Z,50.70
2023-02-15T03:40:24.602Z,51.41
2023-02-15T03:41:24.580Z,47.74
2023-02-15T03:42:24.575Z,58.13
2023-02-15T03:43:24.562Z,51.10
2023-02-15T03:44:24.556Z,54.77
2023-02-15T03:45:24.570Z,49.39
2023-02-15T03:46:24.577Z,62.94
2023-02-15T03:47:24.549Z,53.04
2023-02-15T03:48:24.527Z,47.95
2023-02-15T03:49:24.529Z,52.62
2023-02-15T03:50:24.532Z,51.61
2023-02-15T03:51:24.501Z,49.17
2023-02-15T03:52:24.485Z,47.37
2023-02-15T03:53:24.498Z,45.36
2023-02-15T03:54:24.479Z,48.21
2023-02-15T03:55:24.500Z,53.04
2023-02-15T03:56:24.465Z,42.85
2023-02-15T03:57:24.454Z,51.90
2023-02-15T03:58:24.446Z,55.30
2023-02-15T03:59:24.443Z,51.01
2023-02-15T04:00:24.465Z,56.07
2023-02-15T04:01:24.469Z,59.02
2023-02-15T04:02:24.419Z,54.65
2023-02-15T04:03:24.433Z,52.98
2023-02-15T04:04:25.651Z,47.65
2023-02-15T04:05:25.431Z,47.06
2023-02-15T04:06:24.393Z,59.10
2023-02-15T04:07:24.384Z,48.26
2023-02-15T04:08:24.380Z,54.34
2023-02-15T04:09:24.378Z,54.80
2023-02-15T04:10:24.363Z,55.71
2023-02-15T04:11:24.382Z,53.67
2023-02-15T04:12:24.355Z,53.78
2023-02-15T04:13:24.361Z,51.72
2023-02-15T04:14:24.337Z,61.86
2023-02-15T04:15:24.326Z,57.20
2023-02-15T04:16:24.384Z,59.07
2023-02-15T04:17:24.310Z,59.80
2023-02-15T04:18:24.301Z,63.34
2023-02-15T04:19:24.291Z,58.18
2023-02-15T04:20:24.299Z,59.76
2023-02-15T04:21:24.302Z,61.69
2023-02-15T04:22:24.267Z,56.14
2023-02-15T04:23:24.261Z,62.44
2023-02-15T04:24:24.260Z,58.50
2023-02-15T04:25:24.258Z,59.66
2023-02-15T04:26:24.275Z,58.48
2023-02-15T04:27:24.233Z,60.36
2023-02-15T04:28:24.229Z,59.93
2023-02-15T04:29:25.217Z,60.12
2023-02-15T04:30:24.262Z,57.58
2023-02-15T04:31:24.438Z,60.26
2023-02-15T04:32:24.195Z,57.79
2023-02-15T04:33:24.197Z,61.13
2023-02-15T04:34:24.187Z,58.99
2023-02-15T04:35:24.179Z,60.47
2023-02-15T04:36:24.169Z,52.92
2023-02-15T04:37:24.184Z,59.29
2023-02-15T04:38:24.169Z,63.41
2023-02-15T04:39:24.142Z,56.49
2023-02-15T04:40:24.135Z,64.39
2023-02-15T04:41:24.118Z,55.89
2023-02-15T04:42:24.141Z,60.11
2023-02-15T04:43:24.122Z,59.78
2023-02-15T04:44:24.107Z,67.47
2023-02-15T04:45:25.094Z,61.23
2023-02-15T04:46:24.211Z,56.14
2023-02-15T04:47:24.109Z,58.03
2023-02-15T04:48:24.074Z,52.85
2023-02-15T04:49:24.074Z,59.95
2023-02-15T04:50:24.067Z,63.37
2023-02-15T04:51:24.053Z,60.36
2023-02-15T04:52:24.073Z,60.37
2023-02-15T04:53:24.033Z,64.69
2023-02-15T04:54:24.030Z,56.84
2023-02-15T04:55:24.021Z,55.90
2023-02-15T04:56:24.017Z,60.25
2023-02-15T04:57:24.031Z,61.48
2023-02-15T04:58:23.999Z,61.77
2023-02-15T04:59:23.994Z,56.23
2023-02-15T05:00:23.994Z,59.89
2023-02-15T05:01:24.059Z,59.35
2023-02-15T05:02:24.028Z,61.67
2023-02-15T05:03:23.961Z,59.04
2023-02-15T05:04:24.010Z,60.79
2023-02-15T05:05:23.946Z,60.80
2023-02-15T05:06:23.938Z,60.58
2023-02-15T05:07:23.957Z,58.21
2023-02-15T05:08:23.925Z,60.36
2023-02-15T05:09:23.918Z,54.65
2023-02-15T05:10:23.917Z,60.80
2023-02-15T05:11:23.902Z,57.82
2023-02-15T05:12:23.931Z,62.85
2023-02-15T05:13:23.892Z,56.69
2023-02-15T05:14:23.875Z,62.33
2023-02-15T05:15:23.868Z,65.16
2023-02-15T05:16:23.910Z,59.06
2023-02-15T05:17:23.890Z,61.36
2023-02-15T05:18:23.854Z,61.55
2023-02-15T05:19:23.847Z,63.10
2023-02-15T05:20:23.836Z,65.10
2023-02-15T05:21:23.829Z,55.34
2023-02-15T05:22:23.843Z,59.65
2023-02-15T05:23:23.816Z,57.36
2023-02-15T05:24:23.813Z,58.75
2023-02-15T05:25:23.807Z,59.17
2023-02-15T05:26:23.792Z,57.39
2023-02-15T05:27:23.813Z,57.35
2023-02-15T05:28:23.782Z,58.04
2023-02-15T05:29:23.777Z,60.54
2023-02-15T05:30:23.925Z,64.33
2023-02-15T05:31:23.977Z,63.44
2023-02-15T05:32:24.893Z,59.71
2023-02-15T05:33:23.745Z,61.47
2023-02-15T05:34:23.753Z,60.80
2023-02-15T05:35:23.730Z,60.05
2023-02-15T05:36:23.723Z,55.67
2023-02-15T05:37:23.741Z,61.12
2023-02-15T05:38:23.721Z,63.77
2023-02-15T05:39:23.698Z,60.27
2023-02-15T05:40:23.700Z,60.57
2023-02-15T05:41:23.693Z,60.47
2023-02-15T05:42:23.714Z,60.39
2023-02-15T05:43:23.675Z,62.16
2023-02-15T05:44:23.660Z,59.22
2023-02-15T05:45:23.659Z,60.85
2023-02-15T05:46:23.750Z,61.56
2023-02-15T05:47:23.678Z,59.23
2023-02-15T05:48:23.644Z,62.43
2023-02-15T05:49:23.630Z,58.82
2023-02-15T05:50:23.627Z,58.45
2023-02-15T05:51:23.632Z,59.89
2023-02-15T05:52:23.615Z,59.30
2023-02-15T05:53:23.632Z,61.26
2023-02-15T05:54:23.602Z,61.94
2023-02-15T05:55:23.594Z,62.15
2023-02-15T05:56:23.594Z,62.49
2023-02-15T05:57:23.578Z,63.26
2023-02-15T05:58:23.592Z,61.62
2023-02-15T05:59:23.564Z,59.78
2023-02-15T06:00:23.560Z,61.71
2023-02-15T06:01:23.552Z,61.19
2023-02-15T06:02:23.614Z,60.87
2023-02-15T06:03:23.587Z,61.55
2023-02-15T06:04:23.529Z,61.13
2023-02-15T06:05:23.518Z,59.97
2023-02-15T06:06:23.514Z,62.83
2023-02-15T06:07:23.503Z,62.15
2023-02-15T06:08:23.531Z,61.67
2023-02-15T06:09:23.521Z,62.61
2023-02-15T06:10:23.489Z,61.54
2023-02-15T06:11:23.477Z,61.95
2023-02-15T06:12:23.469Z,61.69
2023-02-15T06:13:23.498Z,60.88
2023-02-15T06:14:23.460Z,62.81
2023-02-15T06:15:23.446Z,57.35
2023-02-15T06:16:23.448Z,61.17
2023-02-15T06:17:23.442Z,56.15
2023-02-15T06:18:23.454Z,61.03
2023-02-15T06:19:23.414Z,60.45
2023-02-15T06:20:23.412Z,57.77
2023-02-15T06:21:23.410Z,62.46
2023-02-15T06:22:23.405Z,64.17
2023-02-15T06:23:23.408Z,59.10
2023-02-15T06:24:24.385Z,62.47
2023-02-15T06:25:23.376Z,60.29
2023-02-15T06:26:23.372Z,62.38
2023-02-15T06:27:23.361Z,59.61
2023-02-15T06:28:23.384Z,60.52
2023-02-15T06:29:23.349Z,60.04
2023-02-15T06:30:23.397Z,62.00
2023-02-15T06:31:23.407Z,60.02
2023-02-15T06:32:23.347Z,61.02
2023-02-15T06:33:23.354Z,61.99
2023-02-15T06:34:23.309Z,62.58
2023-02-15T06:35:23.298Z,61.49
2023-02-15T06:36:23.288Z,62.92
2023-02-15T06:37:23.283Z,60.24
2023-02-15T06:38:23.304Z,63.70
2023-02-15T06:39:23.265Z,64.30
2023-02-15T06:40:23.258Z,65.07
2023-02-15T06:41:23.263Z,59.70
2023-02-15T06:42:23.247Z,60.05
2023-02-15T06:43:23.261Z,62.38
2023-02-15T06:44:23.230Z,63.89
2023-02-15T06:45:23.227Z,60.90
2023-02-15T06:46:23.279Z,63.24
2023-02-15T06:47:23.208Z,63.34
2023-02-15T06:48:23.225Z,62.36
2023-02-15T06:49:23.198Z,61.97
2023-02-15T06:50:23.178Z,64.25
2023-02-15T06:51:24.176Z,61.27
2023-02-15T06:52:23.190Z,59.30
2023-02-15T06:53:23.189Z,62.82
2023-02-15T06:54:23.151Z,58.39
2023-02-15T06:55:23.151Z,58.05
2023-02-15T06:56:23.135Z,63.70
2023-02-15T06:57:23.131Z,61.16
2023-02-15T06:58:23.160Z,59.40
2023-02-15T06:59:23.142Z,61.26
2023-02-15T07:00:23.187Z,62.94
2023-02-15T07:01:23.142Z,59.97
2023-02-15T07:02:23.102Z,58.76
2023-02-15T07:03:23.116Z,61.89
2023-02-15T07:04:23.080Z,62.16
2023-02-15T07:05:23.070Z,60.70
2023-02-15T07:06:23.062Z,61.32
2023-02-15T07:07:23.053Z,59.74
2023-02-15T07:08:23.078Z,60.29
2023-02-15T07:09:23.039Z,62.78
2023-02-15T07:10:23.027Z,58.77
2023-02-15T07:11:23.023Z,60.93
2023-02-15T07:12:23.020Z,59.23
2023-02-15T07:13:23.037Z,59.50
2023-02-15T07:14:23.000Z,60.77
2023-02-15T07:15:22.998Z,59.79
2023-02-15T07:16:23.045Z,62.30
2023-02-15T07:17:36.668Z,62.73
2023-02-15T07:18:24.998Z,60.29
2023-02-15T07:19:22.956Z,56.04
2023-02-15T07:20:22.955Z,61.82
2023-02-15T07:21:22.944Z,60.33
2023-02-15T07:22:22.937Z,60.11
2023-02-15T07:23:22.928Z,59.05
2023-02-15T07:24:22.946Z,61.19
2023-02-15T07:25:22.921Z,60.17
2023-02-15T07:26:22.914Z,53.35
2023-02-15T07:27:22.924Z,60.18
2023-02-15T07:28:22.890Z,58.22
2023-02-15T07:29:22.919Z,60.41
2023-02-15T07:30:23.069Z,58.81
2023-02-15T07:31:22.907Z,58.24
2023-02-15T07:32:22.874Z,62.25
2023-02-15T07:33:22.857Z,61.33
2023-02-15T07:34:22.879Z,58.74
2023-02-15T07:35:22.845Z,61.10
2023-02-15T07:36:22.835Z,60.24
2023-02-15T07:37:22.825Z,62.88
2023-02-15T07:38:22.827Z,60.74
2023-02-15T07:39:22.841Z,59.30
2023-02-15T07:40:22.803Z,58.99
2023-02-15T07:41:22.801Z,65.27
2023-02-15T07:42:22.787Z,63.54
2023-02-15T07:43:22.780Z,61.28
2023-02-15T07:44:22.797Z,58.79
2023-02-15T07:45:22.774Z,64.32
2023-02-15T07:46:22.854Z,57.12
2023-02-15T07:47:22.749Z,62.12
2023-02-15T07:48:24.880Z,62.79
2023-02-15T07:49:23.760Z,60.65
2023-02-15T07:50:22.734Z,59.47
2023-02-15T07:51:22.716Z,61.72
2023-02-15T07:52:22.713Z,62.27
2023-02-15T07:53:22.712Z,61.84
2023-02-15T07:54:22.728Z,54.98
2023-02-15T07:55:22.709Z,62.33
2023-02-15T07:56:22.695Z,63.30
2023-02-15T07:57:22.678Z,61.38
2023-02-15T07:58:22.675Z,62.28
2023-02-15T07:59:22.689Z,61.38
2023-02-15T08:00:22.664Z,58.46
2023-02-15T08:01:22.646Z,60.47
2023-02-15T08:02:22.642Z,63.28
2023-02-15T08:03:22.784Z,63.39
2023-02-15T08:04:22.669Z,62.78
2023-02-15T08:05:22.615Z,61.30
2023-02-15T08:06:22.613Z,56.37
2023-02-15T08:07:22.602Z,59.19
2023-02-15T08:08:22.595Z,62.75
2023-02-15T08:09:22.640Z,62.08
2023-02-15T08:10:24.467Z,59.68
2023-02-15T08:11:22.571Z,62.28
2023-02-15T08:12:22.570Z,60.42
2023-02-15T08:13:22.561Z,58.72
2023-02-15T08:14:22.584Z,61.08
2023-02-15T08:15:22.547Z,58.60
2023-02-15T08:16:22.574Z,55.06
2023-02-15T08:17:22.562Z,61.51
2023-02-15T08:18:22.528Z,59.71
2023-02-15T08:19:22.543Z,55.41
2023-02-15T08:20:22.508Z,57.30
2023-02-15T08:21:24.844Z,59.60
2023-02-15T08:22:23.496Z,58.07
2023-02-15T08:23:22.485Z,58.62
2023-02-15T08:24:22.502Z,62.18
2023-02-15T08:25:22.470Z,60.80
2023-02-15T08:26:22.462Z,57.28
2023-02-15T08:27:22.458Z,58.76
2023-02-15T08:28:22.457Z,60.54
2023-02-15T08:29:22.480Z,60.42
2023-02-15T08:30:22.510Z,60.18
2023-02-15T08:31:22.509Z,56.83
2023-02-15T08:32:22.468Z,60.26
2023-02-15T08:33:22.414Z,57.21
2023-02-15T08:34:22.450Z,59.15
2023-02-15T08:35:22.449Z,64.14
2023-02-15T08:36:22.414Z,59.18
2023-02-15T08:37:22.389Z,59.80
2023-02-15T08:38:22.398Z,62.18
2023-02-15T08:39:22.394Z,60.99
2023-02-15T08:40:22.362Z,59.75
2023-02-15T08:41:22.364Z,53.96
2023-02-15T08:42:22.354Z,59.91
2023-02-15T08:43:22.338Z,58.25
2023-02-15T08:44:22.361Z,61.05
2023-02-15T08:45:22.323Z,59.56
2023-02-15T08:46:22.314Z,60.25
2023-02-15T08:47:22.309Z,60.44
2023-02-15T08:48:22.305Z,56.66
2023-02-15T08:49:22.333Z,60.57
2023-02-15T08:50:22.286Z,59.99
2023-02-15T08:51:22.296Z,59.21
2023-02-15T08:52:22.288Z,60.09
2023-02-15T08:53:22.268Z,56.13
2023-02-15T08:54:22.293Z,59.91
2023-02-15T08:55:22.254Z,60.82
2023-02-15T08:56:22.243Z,60.37
2023-02-15T08:57:22.241Z,58.31
2023-02-15T08:58:22.233Z,59.52
2023-02-15T08:59:22.249Z,59.55
2023-02-15T09:00:22.214Z,56.93
2023-02-15T09:01:22.275Z,59.83
2023-02-15T09:02:22.248Z,57.75
2023-02-15T09:03:22.194Z,61.31
2023-02-15T09:04:22.205Z,58.50
2023-02-15T09:05:22.192Z,58.33
2023-02-15T09:06:22.168Z,61.72
2023-02-15T09:07:22.155Z,57.98
2023-02-15T09:08:22.173Z,53.34
2023-02-15T09:09:22.175Z,60.02
2023-02-15T09:10:22.136Z,62.07
2023-02-15T09:11:22.127Z,55.94
2023-02-15T09:12:22.122Z,54.67
2023-02-15T09:13:22.114Z,55.12
2023-02-15T09:14:22.183Z,58.65
2023-02-15T09:15:22.094Z,62.07
2023-02-15T09:16:22.180Z,59.08
2023-02-15T09:17:22.074Z,61.30
2023-02-15T09:18:22.067Z,60.76
2023-02-15T09:19:22.198Z,55.53
2023-02-15T09:20:22.049Z,61.67
2023-02-15T09:21:22.040Z,59.01
2023-02-15T09:22:22.042Z,59.95
2023-02-15T09:23:27.046Z,55.99
2023-02-15T09:24:24.071Z,60.54
2023-02-15T09:25:22.015Z,58.33
2023-02-15T09:26:22.011Z,61.06
2023-02-15T09:27:22.001Z,57.69
2023-02-15T09:28:21.993Z,56.73
2023-02-15T09:29:22.107Z,58.76
2023-02-15T09:30:22.068Z,59.78
2023-02-15T09:31:22.075Z,59.38
2023-02-15T09:32:21.958Z,57.04
2023-02-15T09:33:21.969Z,57.29
2023-02-15T09:34:21.988Z,54.74
2023-02-15T09:35:21.964Z,56.17
2023-02-15T09:36:21.927Z,58.99
2023-02-15T09:37:21.922Z,58.22
2023-02-15T09:38:21.912Z,58.07
2023-02-15T09:39:21.932Z,57.58
2023-02-15T09:40:21.910Z,55.59
2023-02-15T09:41:21.892Z,58.22
2023-02-15T09:42:21.894Z,56.95
2023-02-15T09:43:21.873Z,60.42
2023-02-15T09:44:21.866Z,59.58
2023-02-15T09:45:21.880Z,59.52
2023-02-15T09:46:21.894Z,57.94
2023-02-15T09:47:21.839Z,56.73
2023-02-15T09:48:21.832Z,53.68
2023-02-15T09:49:21.828Z,61.28
2023-02-15T09:50:21.859Z,59.56
2023-02-15T09:51:21.811Z,59.27
2023-02-15T09:52:21.802Z,58.91
2023-02-15T09:53:21.800Z,59.41
2023-02-15T09:54:21.787Z,56.21
2023-02-15T09:55:21.806Z,55.29
2023-02-15T09:56:21.778Z,58.07
2023-02-15T09:57:21.768Z,60.42
2023-02-15T09:58:21.761Z,57.18
2023-02-15T09:59:21.752Z,59.00
2023-02-15T10:00:21.764Z,56.35
2023-02-15T10:01:21.754Z,59.56
2023-02-15T10:02:21.737Z,56.93
2023-02-15T10:03:21.728Z,59.36
2023-02-15T10:04:21.751Z,56.87
2023-02-15T10:05:21.739Z,56.06
2023-02-15T10:06:21.699Z,53.43
2023-02-15T10:07:21.694Z,57.96
2023-02-15T10:08:21.692Z,57.37
2023-02-15T10:09:21.679Z,55.11
2023-02-15T10:10:21.692Z,58.69
2023-02-15T10:11:21.698Z,56.37
2023-02-15T10:12:21.653Z,57.74
2023-02-15T10:13:21.641Z,57.99
2023-02-15T10:14:21.641Z,56.28
2023-02-15T10:15:21.671Z,58.32
2023-02-15T10:16:21.632Z,55.26
2023-02-15T10:17:21.613Z,57.14
2023-02-15T10:18:21.606Z,58.69
2023-02-15T10:19:21.598Z,58.34
2023-02-15T10:20:21.630Z,58.10
2023-02-15T10:21:21.584Z,56.41
2023-02-15T10:22:21.574Z,55.03
2023-02-15T10:23:21.570Z,57.54
2023-02-15T10:24:21.562Z,57.98
2023-02-15T10:25:21.582Z,57.94
2023-02-15T10:26:21.539Z,57.16
2023-02-15T10:27:21.534Z,58.66
2023-02-15T10:28:21.547Z,59.14
2023-02-15T10:29:21.517Z,58.68
2023-02-15T10:30:21.636Z,59.80
2023-02-15T10:31:21.568Z,56.93
2023-02-15T10:32:21.553Z,54.18
2023-02-15T10:33:22.486Z,59.43
2023-02-15T10:34:21.478Z,56.40
2023-02-15T10:35:21.498Z,54.92
2023-02-15T10:36:21.461Z,55.21
2023-02-15T10:37:21.458Z,58.56
2023-02-15T10:38:21.452Z,57.50
2023-02-15T10:39:21.439Z,51.69
2023-02-15T10:40:21.526Z,54.96
2023-02-15T10:41:21.433Z,55.91
2023-02-15T10:42:21.420Z,58.49
2023-02-15T10:43:21.414Z,56.22
2023-02-15T10:44:21.416Z,58.54
2023-02-15T10:45:21.428Z,56.79
2023-02-15T10:46:21.475Z,59.26
2023-02-15T10:47:22.385Z,61.53
2023-02-15T10:48:21.374Z,60.66
2023-02-15T10:49:21.380Z,57.47
2023-02-15T10:50:21.491Z,58.98
2023-02-15T10:51:21.361Z,56.60
2023-02-15T10:52:23.041Z,57.92
2023-02-15T10:53:21.340Z,56.22
2023-02-15T10:54:21.331Z,58.81
2023-02-15T10:55:21.336Z,55.38
2023-02-15T10:56:21.352Z,54.58
2023-02-15T10:57:21.316Z,58.36
2023-02-15T10:58:21.308Z,56.03
2023-02-15T10:59:21.371Z,57.74
2023-02-15T11:00:21.281Z,60.85
2023-02-15T11:01:21.364Z,56.04
2023-02-15T11:02:21.276Z,56.63
2023-02-15T11:03:21.260Z,60.21
2023-02-15T11:04:21.254Z,52.41
2023-02-15T11:05:21.321Z,57.52
2023-02-15T11:06:21.261Z,57.21
2023-02-15T11:07:21.228Z,58.76
2023-02-15T11:08:21.228Z,56.72
2023-02-15T11:09:21.209Z,56.39
2023-02-15T11:10:21.315Z,54.00
2023-02-15T11:11:21.223Z,60.84
2023-02-15T11:12:21.189Z,60.00
2023-02-15T11:13:21.181Z,59.47
2023-02-15T11:14:21.170Z,56.67
2023-02-15T11:15:21.172Z,57.26
2023-02-15T11:16:21.233Z,54.41
2023-02-15T11:17:21.166Z,56.62
2023-02-15T11:18:21.154Z,59.88
2023-02-15T11:19:21.142Z,58.50
2023-02-15T11:20:21.126Z,57.86
2023-02-15T11:21:21.151Z,57.51
2023-02-15T11:22:21.132Z,58.18
2023-02-15T11:23:21.104Z,56.68
2023-02-15T11:24:21.133Z,57.28
2023-02-15T11:25:21.093Z,55.75
2023-02-15T11:26:21.115Z,58.43
2023-02-15T11:27:21.151Z,54.32
2023-02-15T11:28:21.073Z,53.37
2023-02-15T11:29:21.069Z,51.99
2023-02-15T11:30:21.088Z,54.84
2023-02-15T11:31:21.194Z,59.68
2023-02-15T11:32:21.140Z,54.32
2023-02-15T11:33:21.029Z,60.52
2023-02-15T11:34:21.040Z,57.89
2023-02-15T11:35:21.014Z,56.94
2023-02-15T11:36:21.028Z,54.94
2023-02-15T11:37:20.999Z,60.02
2023-02-15T11:38:20.993Z,60.70
2023-02-15T11:39:20.977Z,57.62
2023-02-15T11:40:20.972Z,56.32
2023-02-15T11:41:20.993Z,58.37
2023-02-15T11:42:20.958Z,53.92
2023-02-15T11:43:20.953Z,55.62
2023-02-15T11:44:20.942Z,59.24
2023-02-15T11:45:20.933Z,59.77
2023-02-15T11:46:20.964Z,62.47
2023-02-15T11:47:20.917Z,60.00
2023-02-15T11:48:20.908Z,59.75
2023-02-15T11:49:20.918Z,56.44
2023-02-15T11:50:20.895Z,60.30
2023-02-15T11:51:23.456Z,56.71
2023-02-15T11:52:21.884Z,55.92
2023-02-15T11:53:20.880Z,55.65
2023-02-15T11:54:20.868Z,59.47
2023-02-15T11:55:20.868Z,57.91
2023-02-15T11:56:20.879Z,58.77
2023-02-15T11:57:22.349Z,59.16
2023-02-15T11:58:21.835Z,59.86
2023-02-15T11:59:20.847Z,58.35
2023-02-15T12:00:20.833Z,57.81
2023-02-15T12:01:20.841Z,57.66
2023-02-15T12:02:20.873Z,59.63
2023-02-15T12:03:23.419Z,58.16
2023-02-15T12:04:20.870Z,57.34
2023-02-15T12:05:20.787Z,56.55
2023-02-15T12:06:20.803Z,58.86
2023-02-15T12:07:20.770Z,57.68
2023-02-15T12:08:20.766Z,56.10
2023-02-15T12:09:23.364Z,57.40
2023-02-15T12:10:20.750Z,58.68
2023-02-15T12:11:20.766Z,56.18
2023-02-15T12:12:20.734Z,60.49
2023-02-15T12:13:20.724Z,59.98
2023-02-15T12:14:20.718Z,57.37
2023-02-15T12:15:20.708Z,57.38
2023-02-15T12:16:20.782Z,55.76
2023-02-15T12:17:20.688Z,61.87
2023-02-15T12:18:20.681Z,64.01
2023-02-15T12:19:20.767Z,64.97
2023-02-15T12:20:20.675Z,56.90
2023-02-15T12:21:20.660Z,58.78
2023-02-15T12:22:20.728Z,68.88
2023-02-15T12:23:20.639Z,73.06
2023-02-15T12:24:20.631Z,61.77
2023-02-15T12:25:20.624Z,62.00
2023-02-15T12:26:20.617Z,61.92
2023-02-15T12:27:20.639Z,61.75
2023-02-15T12:28:20.602Z,61.83
2023-02-15T12:29:20.596Z,58.21
2023-02-15T12:30:20.624Z,58.76
2023-02-15T12:31:20.676Z,53.53
2023-02-15T12:32:20.659Z,61.93
2023-02-15T12:33:20.569Z,60.42
2023-02-15T12:34:20.569Z,57.65
2023-02-15T12:35:20.559Z,58.21
2023-02-15T12:36:20.548Z,57.94
2023-02-15T12:37:20.573Z,60.95
2023-02-15T12:38:20.538Z,62.80
2023-02-15T12:39:20.557Z,59.12
2023-02-15T12:40:20.517Z,57.08
2023-02-15T12:41:20.511Z,59.79
2023-02-15T12:42:20.538Z,59.87
2023-02-15T12:43:20.494Z,58.63
2023-02-15T12:44:20.488Z,58.28
2023-02-15T12:45:20.487Z,58.79
2023-02-15T12:46:20.512Z,60.43
2023-02-15T12:47:20.491Z,58.32
2023-02-15T12:48:20.462Z,58.70
2023-02-15T12:49:20.970Z,58.47
2023-02-15T12:50:21.445Z,54.69
2023-02-15T12:51:20.434Z,57.32
2023-02-15T12:52:20.449Z,62.45
2023-02-15T12:53:20.416Z,55.63